sensor_id;sensor_type;location;lat;lon;timestamp;P1;durP1;ratioP1;P2;durP2;ratioP2
76396;SDS011;66045;51.622;5.526;2023-01-20T00:00:09;8.27;;;5.82;;
76396;SDS011;66045;51.622;5.526;2023-01-20T00:02:35;6.68;;;5.47;;
76396;SDS011;66045;51.622;5.526;2023-01-20T00:05:01;7.68;;;5.53;;
76396;SDS011;66045;51.622;5.526;2023-01-20T00:07:26;6.68;;;5.60;;
76396;SDS011;66045;51.622;5.526;2023-01-20T00:09:51;8.02;;;5.63;;
76396;SDS011;66045;51.622;5.526;2023-01-20T00:12:17;7.05;;;5.07;;
76396;SDS011;66045;51.622;5.526;2023-01-20T00:14:42;7.15;;;5.25;;
76396;SDS011;66045;51.622;5.526;2023-01-20T00:17:07;7.15;;;5.50;;
76396;SDS011;66045;51.622;5.526;2023-01-20T00:19:33;7.90;;;5.45;;
76396;SDS011;66045;51.622;5.526;2023-01-20T00:21:58;7.88;;;5.88;;
76396;SDS011;66045;51.622;5.526;2023-01-20T00:24:23;7.32;;;5.80;;
76396;SDS011;66045;51.622;5.526;2023-01-20T00:26:49;6.70;;;5.40;;
76396;SDS011;66045;51.622;5.526;2023-01-20T00:29:14;7.25;;;5.38;;
76396;SDS011;66045;51.622;5.526;2023-01-20T00:31:39;6.82;;;4.97;;
76396;SDS011;66045;51.622;5.526;2023-01-20T00:34:05;5.68;;;4.80;;
76396;SDS011;66045;51.622;5.526;2023-01-20T00:36:31;6.80;;;5.05;;
76396;SDS011;66045;51.622;5.526;2023-01-20T00:38:56;7.38;;;5.22;;
76396;SDS011;66045;51.622;5.526;2023-01-20T00:41:22;6.93;;;5.15;;
76396;SDS011;66045;51.622;5.526;2023-01-20T00:43:48;5.80;;;4.90;;
76396;SDS011;66045;51.622;5.526;2023-01-20T00:46:13;7.05;;;4.97;;
76396;SDS011;66045;51.622;5.526;2023-01-20T00:48:39;6.15;;;4.68;;
76396;SDS011;66045;51.622;5.526;2023-01-20T00:51:05;6.70;;;5.07;;
76396;SDS011;66045;51.622;5.526;2023-01-20T00:53:31;5.25;;;4.55;;
76396;SDS011;66045;51.622;5.526;2023-01-20T00:55:57;6.43;;;5.03;;
76396;SDS011;66045;51.622;5.526;2023-01-20T00:58:22;6.63;;;5.13;;
76396;SDS011;66045;51.622;5.526;2023-01-20T01:00:49;6.22;;;4.82;;
76396;SDS011;66045;51.622;5.526;2023-01-20T01:03:15;6.15;;;4.45;;
76396;SDS011;66045;51.622;5.526;2023-01-20T01:05:41;5.57;;;4.80;;
76396;SDS011;66045;51.622;5.526;2023-01-20T01:08:06;6.20;;;5.30;;
76396;SDS011;66045;51.622;5.526;2023-01-20T01:10:32;5.88;;;4.97;;
76396;SDS011;66045;51.622;5.526;2023-01-20T01:12:58;6.07;;;5.00;;
76396;SDS011;66045;51.622;5.526;2023-01-20T01:15:25;6.22;;;4.88;;
76396;SDS011;66045;51.622;5.526;2023-01-20T01:17:51;6.43;;;5.00;;
76396;SDS011;66045;51.622;5.526;2023-01-20T01:20:17;7.32;;;4.97;;
76396;SDS011;66045;51.622;5.526;2023-01-20T01:22:43;6.95;;;5.35;;
76396;SDS011;66045;51.622;5.526;2023-01-20T01:25:08;6.30;;;5.00;;
76396;SDS011;66045;51.622;5.526;2023-01-20T01:27:34;6.13;;;4.78;;
76396;SDS011;66045;51.622;5.526;2023-01-20T01:29:59;7.05;;;5.18;;
76396;SDS011;66045;51.622;5.526;2023-01-20T01:32:25;6.40;;;4.80;;
76396;SDS011;66045;51.622;5.526;2023-01-20T01:34:51;7.25;;;5.60;;
76396;SDS011;66045;51.622;5.526;2023-01-20T01:37:16;6.97;;;5.60;;
76396;SDS011;66045;51.622;5.526;2023-01-20T01:39:41;6.15;;;5.18;;
76396;SDS011;66045;51.622;5.526;2023-01-20T01:42:10;7.30;;;5.38;;
76396;SDS011;66045;51.622;5.526;2023-01-20T01:44:37;5.88;;;4.90;;
76396;SDS011;66045;51.622;5.526;2023-01-20T01:47:23;6.75;;;5.25;;
76396;SDS011;66045;51.622;5.526;2023-01-20T01:49:48;7.82;;;5.68;;
76396;SDS011;66045;51.622;5.526;2023-01-20T01:52:13;6.72;;;5.55;;
76396;SDS011;66045;51.622;5.526;2023-01-20T01:54:39;7.60;;;5.13;;
76396;SDS011;66045;51.622;5.526;2023-01-20T01:57:09;6.65;;;5.05;;
76396;SDS011;66045;51.622;5.526;2023-01-20T01:59:35;8.32;;;5.55;;
76396;SDS011;66045;51.622;5.526;2023-01-20T02:02:01;6.18;;;4.88;;
76396;SDS011;66045;51.622;5.526;2023-01-20T02:04:27;6.32;;;5.40;;
76396;SDS011;66045;51.622;5.526;2023-01-20T02:07:11;7.22;;;5.43;;
76396;SDS011;66045;51.622;5.526;2023-01-20T02:09:39;6.70;;;5.25;;
76396;SDS011;66045;51.622;5.526;2023-01-20T02:12:06;6.55;;;5.18;;
76396;SDS011;66045;51.622;5.526;2023-01-20T02:14:51;6.68;;;5.45;;
76396;SDS011;66045;51.622;5.526;2023-01-20T02:20:15;6.97;;;5.45;;
76396;SDS011;66045;51.622;5.526;2023-01-20T02:34:47;6.47;;;5.40;;
76396;SDS011;66045;51.622;5.526;2023-01-20T02:37:16;7.20;;;5.53;;
76396;SDS011;66045;51.622;5.526;2023-01-20T02:39:55;7.55;;;5.35;;
76396;SDS011;66045;51.622;5.526;2023-01-20T02:42:38;5.97;;;5.35;;
76396;SDS011;66045;51.622;5.526;2023-01-20T02:45:23;7.63;;;5.07;;
76396;SDS011;66045;51.622;5.526;2023-01-20T02:50:30;6.80;;;5.40;;
76396;SDS011;66045;51.622;5.526;2023-01-20T02:52:59;6.85;;;5.28;;
76396;SDS011;66045;51.622;5.526;2023-01-20T02:55:29;7.53;;;5.57;;
76396;SDS011;66045;51.622;5.526;2023-01-20T02:58:24;6.75;;;5.40;;
76396;SDS011;66045;51.622;5.526;2023-01-20T03:01:07;7.45;;;5.63;;
76396;SDS011;66045;51.622;5.526;2023-01-20T03:03:37;6.20;;;4.93;;
76396;SDS011;66045;51.622;5.526;2023-01-20T03:06:07;7.30;;;5.57;;
76396;SDS011;66045;51.622;5.526;2023-01-20T03:08:41;6.70;;;5.40;;
76396;SDS011;66045;51.622;5.526;2023-01-20T03:11:06;7.65;;;5.47;;
76396;SDS011;66045;51.622;5.526;2023-01-20T03:13:53;7.10;;;5.50;;
76396;SDS011;66045;51.622;5.526;2023-01-20T03:18:50;6.72;;;5.32;;
76396;SDS011;66045;51.622;5.526;2023-01-20T03:21:16;7.53;;;5.55;;
76396;SDS011;66045;51.622;5.526;2023-01-20T03:23:43;6.82;;;5.50;;
76396;SDS011;66045;51.622;5.526;2023-01-20T03:26:15;6.85;;;5.50;;
76396;SDS011;66045;51.622;5.526;2023-01-20T03:28:42;7.90;;;5.30;;
76396;SDS011;66045;51.622;5.526;2023-01-20T03:31:12;6.68;;;5.43;;
76396;SDS011;66045;51.622;5.526;2023-01-20T03:33:46;6.88;;;5.45;;
76396;SDS011;66045;51.622;5.526;2023-01-20T03:36:13;6.80;;;5.38;;
76396;SDS011;66045;51.622;5.526;2023-01-20T03:38:41;7.47;;;5.57;;
76396;SDS011;66045;51.622;5.526;2023-01-20T03:43:42;7.28;;;5.50;;
76396;SDS011;66045;51.622;5.526;2023-01-20T03:46:18;7.40;;;4.90;;
76396;SDS011;66045;51.622;5.526;2023-01-20T03:49:00;7.15;;;5.60;;
76396;SDS011;66045;51.622;5.526;2023-01-20T03:51:49;7.65;;;5.30;;
76396;SDS011;66045;51.622;5.526;2023-01-20T03:54:25;6.50;;;5.45;;
76396;SDS011;66045;51.622;5.526;2023-01-20T03:56:57;7.40;;;5.80;;
76396;SDS011;66045;51.622;5.526;2023-01-20T03:59:33;6.65;;;5.70;;
76396;SDS011;66045;51.622;5.526;2023-01-20T04:02:01;7.40;;;5.68;;
76396;SDS011;66045;51.622;5.526;2023-01-20T04:04:29;6.28;;;5.05;;
76396;SDS011;66045;51.622;5.526;2023-01-20T04:06:58;6.28;;;5.07;;
76396;SDS011;66045;51.622;5.526;2023-01-20T04:09:26;6.50;;;5.57;;
76396;SDS011;66045;51.622;5.526;2023-01-20T04:11:55;6.82;;;5.43;;
76396;SDS011;66045;51.622;5.526;2023-01-20T04:14:21;7.18;;;5.65;;
76396;SDS011;66045;51.622;5.526;2023-01-20T04:16:50;7.20;;;5.50;;
76396;SDS011;66045;51.622;5.526;2023-01-20T04:19:19;7.93;;;5.68;;
76396;SDS011;66045;51.622;5.526;2023-01-20T04:21:46;6.45;;;5.20;;
76396;SDS011;66045;51.622;5.526;2023-01-20T04:26:49;7.15;;;5.47;;
76396;SDS011;66045;51.622;5.526;2023-01-20T04:29:14;7.50;;;5.45;;
76396;SDS011;66045;51.622;5.526;2023-01-20T04:31:39;6.65;;;5.57;;
76396;SDS011;66045;51.622;5.526;2023-01-20T04:34:05;6.70;;;5.30;;
76396;SDS011;66045;51.622;5.526;2023-01-20T04:36:32;6.68;;;5.45;;
76396;SDS011;66045;51.622;5.526;2023-01-20T04:38:57;6.88;;;5.32;;
76396;SDS011;66045;51.622;5.526;2023-01-20T04:41:22;7.10;;;5.60;;
76396;SDS011;66045;51.622;5.526;2023-01-20T04:43:48;6.53;;;5.20;;
76396;SDS011;66045;51.622;5.526;2023-01-20T04:46:14;7.10;;;5.47;;
76396;SDS011;66045;51.622;5.526;2023-01-20T04:48:40;7.78;;;5.55;;
76396;SDS011;66045;51.622;5.526;2023-01-20T04:51:06;7.00;;;5.45;;
76396;SDS011;66045;51.622;5.526;2023-01-20T04:53:32;7.50;;;5.45;;
76396;SDS011;66045;51.622;5.526;2023-01-20T04:55:58;7.00;;;5.40;;
76396;SDS011;66045;51.622;5.526;2023-01-20T04:58:23;7.35;;;5.63;;
76396;SDS011;66045;51.622;5.526;2023-01-20T05:00:49;6.18;;;5.28;;
76396;SDS011;66045;51.622;5.526;2023-01-20T05:03:14;8.05;;;5.95;;
76396;SDS011;66045;51.622;5.526;2023-01-20T05:05:40;6.55;;;5.25;;
76396;SDS011;66045;51.622;5.526;2023-01-20T05:08:05;6.93;;;5.50;;
76396;SDS011;66045;51.622;5.526;2023-01-20T05:10:31;7.63;;;5.82;;
76396;SDS011;66045;51.622;5.526;2023-01-20T05:12:57;7.93;;;5.68;;
76396;SDS011;66045;51.622;5.526;2023-01-20T05:15:23;7.45;;;5.85;;
76396;SDS011;66045;51.622;5.526;2023-01-20T05:17:48;7.20;;;5.47;;
76396;SDS011;66045;51.622;5.526;2023-01-20T05:20:14;7.63;;;5.78;;
76396;SDS011;66045;51.622;5.526;2023-01-20T05:22:39;6.40;;;5.47;;
76396;SDS011;66045;51.622;5.526;2023-01-20T05:25:05;7.10;;;5.53;;
76396;SDS011;66045;51.622;5.526;2023-01-20T05:27:33;7.90;;;5.88;;
76396;SDS011;66045;51.622;5.526;2023-01-20T05:29:59;6.82;;;5.47;;
76396;SDS011;66045;51.622;5.526;2023-01-20T05:32:24;7.30;;;5.70;;
76396;SDS011;66045;51.622;5.526;2023-01-20T05:34:50;7.55;;;6.40;;
76396;SDS011;66045;51.622;5.526;2023-01-20T05:37:16;7.57;;;5.78;;
76396;SDS011;66045;51.622;5.526;2023-01-20T05:39:42;7.28;;;5.45;;
76396;SDS011;66045;51.622;5.526;2023-01-20T05:42:07;7.85;;;5.63;;
76396;SDS011;66045;51.622;5.526;2023-01-20T05:44:33;7.15;;;5.22;;
76396;SDS011;66045;51.622;5.526;2023-01-20T05:46:59;7.35;;;5.55;;
76396;SDS011;66045;51.622;5.526;2023-01-20T05:49:25;7.45;;;5.40;;
76396;SDS011;66045;51.622;5.526;2023-01-20T05:51:50;7.40;;;5.72;;
76396;SDS011;66045;51.622;5.526;2023-01-20T05:54:16;7.60;;;5.68;;
76396;SDS011;66045;51.622;5.526;2023-01-20T05:56:41;7.50;;;5.40;;
76396;SDS011;66045;51.622;5.526;2023-01-20T05:59:07;7.70;;;5.70;;
76396;SDS011;66045;51.622;5.526;2023-01-20T06:01:33;7.68;;;5.63;;
76396;SDS011;66045;51.622;5.526;2023-01-20T06:03:59;7.43;;;5.72;;
76396;SDS011;66045;51.622;5.526;2023-01-20T06:06:24;7.55;;;5.60;;
76396;SDS011;66045;51.622;5.526;2023-01-20T06:08:50;7.18;;;5.32;;
76396;SDS011;66045;51.622;5.526;2023-01-20T06:11:16;8.63;;;5.45;;
76396;SDS011;66045;51.622;5.526;2023-01-20T06:13:42;6.82;;;5.40;;
76396;SDS011;66045;51.622;5.526;2023-01-20T06:16:08;7.20;;;5.95;;
76396;SDS011;66045;51.622;5.526;2023-01-20T06:18:33;7.80;;;5.70;;
76396;SDS011;66045;51.622;5.526;2023-01-20T06:20:59;7.70;;;5.80;;
76396;SDS011;66045;51.622;5.526;2023-01-20T06:23:25;6.78;;;5.50;;
76396;SDS011;66045;51.622;5.526;2023-01-20T06:26:00;7.63;;;5.78;;
76396;SDS011;66045;51.622;5.526;2023-01-20T06:28:27;7.55;;;5.55;;
76396;SDS011;66045;51.622;5.526;2023-01-20T06:31:03;7.30;;;5.35;;
76396;SDS011;66045;51.622;5.526;2023-01-20T06:33:31;7.95;;;6.10;;
76396;SDS011;66045;51.622;5.526;2023-01-20T06:35:57;8.73;;;6.20;;
76396;SDS011;66045;51.622;5.526;2023-01-20T06:38:23;5.80;;;4.88;;
76396;SDS011;66045;51.622;5.526;2023-01-20T06:40:50;7.57;;;5.70;;
76396;SDS011;66045;51.622;5.526;2023-01-20T06:43:20;7.78;;;5.53;;
76396;SDS011;66045;51.622;5.526;2023-01-20T06:45:45;7.90;;;5.93;;
76396;SDS011;66045;51.622;5.526;2023-01-20T06:48:10;6.90;;;5.25;;
76396;SDS011;66045;51.622;5.526;2023-01-20T06:50:35;7.47;;;5.70;;
76396;SDS011;66045;51.622;5.526;2023-01-20T06:53:01;8.13;;;5.40;;
76396;SDS011;66045;51.622;5.526;2023-01-20T06:55:27;7.05;;;5.18;;
76396;SDS011;66045;51.622;5.526;2023-01-20T06:57:52;7.45;;;5.57;;
76396;SDS011;66045;51.622;5.526;2023-01-20T07:00:18;7.78;;;5.82;;
76396;SDS011;66045;51.622;5.526;2023-01-20T07:02:44;6.63;;;5.10;;
76396;SDS011;66045;51.622;5.526;2023-01-20T07:05:09;7.00;;;5.70;;
76396;SDS011;66045;51.622;5.526;2023-01-20T07:07:34;8.55;;;5.80;;
76396;SDS011;66045;51.622;5.526;2023-01-20T07:10:00;7.45;;;5.43;;
76396;SDS011;66045;51.622;5.526;2023-01-20T07:12:26;7.55;;;5.88;;
76396;SDS011;66045;51.622;5.526;2023-01-20T07:14:52;6.88;;;5.30;;
76396;SDS011;66045;51.622;5.526;2023-01-20T07:17:17;8.18;;;6.07;;
76396;SDS011;66045;51.622;5.526;2023-01-20T07:19:43;8.15;;;5.88;;
76396;SDS011;66045;51.622;5.526;2023-01-20T07:22:08;7.50;;;5.47;;
76396;SDS011;66045;51.622;5.526;2023-01-20T07:24:33;7.95;;;5.50;;
76396;SDS011;66045;51.622;5.526;2023-01-20T07:26:59;6.95;;;5.72;;
76396;SDS011;66045;51.622;5.526;2023-01-20T07:29:25;6.80;;;5.10;;
76396;SDS011;66045;51.622;5.526;2023-01-20T07:31:50;7.68;;;5.78;;
76396;SDS011;66045;51.622;5.526;2023-01-20T07:34:16;7.35;;;5.25;;
76396;SDS011;66045;51.622;5.526;2023-01-20T07:36:41;6.78;;;5.13;;
76396;SDS011;66045;51.622;5.526;2023-01-20T07:39:08;6.68;;;5.00;;
76396;SDS011;66045;51.622;5.526;2023-01-20T07:41:37;6.68;;;5.18;;
76396;SDS011;66045;51.622;5.526;2023-01-20T07:44:02;6.78;;;5.07;;
76396;SDS011;66045;51.622;5.526;2023-01-20T07:46:28;5.88;;;4.45;;
76396;SDS011;66045;51.622;5.526;2023-01-20T07:48:54;8.00;;;5.43;;
76396;SDS011;66045;51.622;5.526;2023-01-20T07:51:20;8.02;;;5.35;;
76396;SDS011;66045;51.622;5.526;2023-01-20T07:53:46;7.78;;;5.65;;
76396;SDS011;66045;51.622;5.526;2023-01-20T07:56:24;8.43;;;5.30;;
76396;SDS011;66045;51.622;5.526;2023-01-20T07:58:52;8.23;;;4.80;;
76396;SDS011;66045;51.622;5.526;2023-01-20T08:01:23;6.43;;;4.78;;
76396;SDS011;66045;51.622;5.526;2023-01-20T08:03:53;8.35;;;5.07;;
76396;SDS011;66045;51.622;5.526;2023-01-20T08:06:20;7.82;;;5.15;;
76396;SDS011;66045;51.622;5.526;2023-01-20T08:08:46;7.60;;;5.53;;
76396;SDS011;66045;51.622;5.526;2023-01-20T08:11:13;6.72;;;5.00;;
76396;SDS011;66045;51.622;5.526;2023-01-20T08:13:39;8.25;;;5.25;;
76396;SDS011;66045;51.622;5.526;2023-01-20T08:16:07;7.47;;;5.25;;
76396;SDS011;66045;51.622;5.526;2023-01-20T08:18:34;7.18;;;5.13;;
76396;SDS011;66045;51.622;5.526;2023-01-20T08:21:00;6.60;;;4.60;;
76396;SDS011;66045;51.622;5.526;2023-01-20T08:23:30;7.97;;;5.43;;
76396;SDS011;66045;51.622;5.526;2023-01-20T08:25:59;6.80;;;4.60;;
76396;SDS011;66045;51.622;5.526;2023-01-20T08:28:26;6.43;;;4.55;;
76396;SDS011;66045;51.622;5.526;2023-01-20T08:30:52;6.13;;;4.57;;
76396;SDS011;66045;51.622;5.526;2023-01-20T08:33:18;6.25;;;4.38;;
76396;SDS011;66045;51.622;5.526;2023-01-20T08:35:43;6.78;;;4.25;;
76396;SDS011;66045;51.622;5.526;2023-01-20T08:38:09;8.13;;;4.40;;
76396;SDS011;66045;51.622;5.526;2023-01-20T08:40:34;6.78;;;3.97;;
76396;SDS011;66045;51.622;5.526;2023-01-20T08:43:00;7.10;;;4.75;;
76396;SDS011;66045;51.622;5.526;2023-01-20T08:45:26;7.68;;;5.57;;
76396;SDS011;66045;51.622;5.526;2023-01-20T08:47:51;8.00;;;5.28;;
76396;SDS011;66045;51.622;5.526;2023-01-20T08:50:17;12.73;;;5.75;;
76396;SDS011;66045;51.622;5.526;2023-01-20T08:52:43;11.38;;;6.32;;
76396;SDS011;66045;51.622;5.526;2023-01-20T08:55:08;8.77;;;5.60;;
76396;SDS011;66045;51.622;5.526;2023-01-20T08:57:34;9.80;;;5.55;;
76396;SDS011;66045;51.622;5.526;2023-01-20T09:00:00;8.35;;;5.20;;
76396;SDS011;66045;51.622;5.526;2023-01-20T09:02:27;7.90;;;4.82;;
76396;SDS011;66045;51.622;5.526;2023-01-20T09:04:52;9.25;;;7.25;;
76396;SDS011;66045;51.622;5.526;2023-01-20T09:07:18;7.93;;;6.20;;
76396;SDS011;66045;51.622;5.526;2023-01-20T09:09:45;10.13;;;6.30;;
76396;SDS011;66045;51.622;5.526;2023-01-20T09:12:10;10.70;;;6.18;;
76396;SDS011;66045;51.622;5.526;2023-01-20T09:14:36;10.20;;;6.22;;
76396;SDS011;66045;51.622;5.526;2023-01-20T09:17:01;11.35;;;6.82;;
76396;SDS011;66045;51.622;5.526;2023-01-20T09:19:30;8.35;;;6.13;;
76396;SDS011;66045;51.622;5.526;2023-01-20T09:21:55;9.57;;;6.00;;
76396;SDS011;66045;51.622;5.526;2023-01-20T09:24:21;11.82;;;6.22;;
76396;SDS011;66045;51.622;5.526;2023-01-20T09:26:47;9.40;;;6.40;;
76396;SDS011;66045;51.622;5.526;2023-01-20T09:29:14;10.35;;;5.88;;
76396;SDS011;66045;51.622;5.526;2023-01-20T09:31:43;7.07;;;5.68;;
76396;SDS011;66045;51.622;5.526;2023-01-20T09:34:13;7.03;;;4.82;;
76396;SDS011;66045;51.622;5.526;2023-01-20T09:36:43;9.75;;;5.82;;
76396;SDS011;66045;51.622;5.526;2023-01-20T09:39:09;7.85;;;5.13;;
76396;SDS011;66045;51.622;5.526;2023-01-20T09:41:56;7.80;;;5.72;;
76396;SDS011;66045;51.622;5.526;2023-01-20T09:44:51;7.90;;;4.70;;
76396;SDS011;66045;51.622;5.526;2023-01-20T09:50:21;8.32;;;4.75;;
76396;SDS011;66045;51.622;5.526;2023-01-20T09:56:19;7.20;;;4.80;;
76396;SDS011;66045;51.622;5.526;2023-01-20T09:58:53;6.80;;;4.23;;
76396;SDS011;66045;51.622;5.526;2023-01-20T10:01:33;5.78;;;4.10;;
76396;SDS011;66045;51.622;5.526;2023-01-20T10:04:08;8.73;;;4.78;;
76396;SDS011;66045;51.622;5.526;2023-01-20T10:06:38;9.63;;;4.72;;
76396;SDS011;66045;51.622;5.526;2023-01-20T10:09:26;6.05;;;4.18;;
76396;SDS011;66045;51.622;5.526;2023-01-20T10:12:00;7.55;;;4.30;;
76396;SDS011;66045;51.622;5.526;2023-01-20T10:14:37;7.05;;;4.40;;
76396;SDS011;66045;51.622;5.526;2023-01-20T10:19:43;6.40;;;4.03;;
76396;SDS011;66045;51.622;5.526;2023-01-20T10:22:33;6.32;;;4.00;;
76396;SDS011;66045;51.622;5.526;2023-01-20T10:25:20;7.03;;;3.90;;
76396;SDS011;66045;51.622;5.526;2023-01-20T10:27:57;7.07;;;3.88;;
76396;SDS011;66045;51.622;5.526;2023-01-20T10:30:31;5.38;;;4.22;;
76396;SDS011;66045;51.622;5.526;2023-01-20T10:33:05;6.95;;;3.88;;
76396;SDS011;66045;51.622;5.526;2023-01-20T10:35:45;4.85;;;3.63;;
76396;SDS011;66045;51.622;5.526;2023-01-20T10:38:23;6.47;;;4.13;;
76396;SDS011;66045;51.622;5.526;2023-01-20T10:40:51;5.47;;;4.15;;
76396;SDS011;66045;51.622;5.526;2023-01-20T10:43:21;5.53;;;3.85;;
76396;SDS011;66045;51.622;5.526;2023-01-20T10:57:35;5.60;;;4.47;;
76396;SDS011;66045;51.622;5.526;2023-01-20T11:00:03;5.93;;;4.00;;
76396;SDS011;66045;51.622;5.526;2023-01-20T11:02:34;5.97;;;4.30;;
76396;SDS011;66045;51.622;5.526;2023-01-20T11:05:23;6.20;;;4.10;;
76396;SDS011;66045;51.622;5.526;2023-01-20T11:07:52;5.18;;;3.60;;
76396;SDS011;66045;51.622;5.526;2023-01-20T11:10:23;7.13;;;3.70;;
76396;SDS011;66045;51.622;5.526;2023-01-20T11:12:51;6.07;;;3.75;;
76396;SDS011;66045;51.622;5.526;2023-01-20T11:15:21;5.35;;;3.38;;
76396;SDS011;66045;51.622;5.526;2023-01-20T11:20:52;5.72;;;3.30;;
76396;SDS011;66045;51.622;5.526;2023-01-20T11:23:39;5.55;;;3.40;;
76396;SDS011;66045;51.622;5.526;2023-01-20T11:28:58;15.80;;;4.30;;
76396;SDS011;66045;51.622;5.526;2023-01-20T11:31:39;6.00;;;3.67;;
76396;SDS011;66045;51.622;5.526;2023-01-20T11:39:38;6.70;;;3.55;;
76396;SDS011;66045;51.622;5.526;2023-01-20T11:44:44;4.50;;;2.80;;
76396;SDS011;66045;51.622;5.526;2023-01-20T11:47:19;6.45;;;3.65;;
76396;SDS011;66045;51.622;5.526;2023-01-20T11:52:28;4.28;;;3.40;;
76396;SDS011;66045;51.622;5.526;2023-01-20T11:57:36;5.88;;;3.65;;
76396;SDS011;66045;51.622;5.526;2023-01-20T12:00:05;4.72;;;3.92;;
76396;SDS011;66045;51.622;5.526;2023-01-20T12:02:58;6.97;;;4.60;;
76396;SDS011;66045;51.622;5.526;2023-01-20T12:08:16;4.78;;;3.97;;
76396;SDS011;66045;51.622;5.526;2023-01-20T12:10:50;4.40;;;3.90;;
76396;SDS011;66045;51.622;5.526;2023-01-20T12:13:18;6.32;;;3.90;;
76396;SDS011;66045;51.622;5.526;2023-01-20T12:15:48;6.07;;;4.00;;
76396;SDS011;66045;51.622;5.526;2023-01-20T12:23:48;4.93;;;3.60;;
76396;SDS011;66045;51.622;5.526;2023-01-20T12:26:21;4.25;;;3.60;;
76396;SDS011;66045;51.622;5.526;2023-01-20T12:31:35;7.22;;;4.00;;
76396;SDS011;66045;51.622;5.526;2023-01-20T12:47:41;3.53;;;2.85;;
76396;SDS011;66045;51.622;5.526;2023-01-20T12:56:40;3.45;;;2.60;;
76396;SDS011;66045;51.622;5.526;2023-01-20T12:59:26;3.75;;;2.70;;
76396;SDS011;66045;51.622;5.526;2023-01-20T13:07:48;5.50;;;2.30;;
76396;SDS011;66045;51.622;5.526;2023-01-20T13:10:37;3.00;;;2.58;;
76396;SDS011;66045;51.622;5.526;2023-01-20T13:13:31;5.15;;;2.90;;
76396;SDS011;66045;51.622;5.526;2023-01-20T13:16:19;3.65;;;2.55;;
76396;SDS011;66045;51.622;5.526;2023-01-20T13:21:14;3.38;;;2.70;;
76396;SDS011;66045;51.622;5.526;2023-01-20T13:23:41;3.25;;;2.50;;
76396;SDS011;66045;51.622;5.526;2023-01-20T13:26:07;3.25;;;2.50;;
76396;SDS011;66045;51.622;5.526;2023-01-20T13:28:33;3.38;;;2.22;;
76396;SDS011;66045;51.622;5.526;2023-01-20T13:30:59;3.03;;;2.50;;
76396;SDS011;66045;51.622;5.526;2023-01-20T13:33:45;3.03;;;2.50;;
76396;SDS011;66045;51.622;5.526;2023-01-20T13:36:21;4.10;;;2.53;;
76396;SDS011;66045;51.622;5.526;2023-01-20T13:38:49;3.00;;;2.08;;
76396;SDS011;66045;51.622;5.526;2023-01-20T13:41:47;3.00;;;2.30;;
76396;SDS011;66045;51.622;5.526;2023-01-20T13:47:07;2.75;;;2.20;;
76396;SDS011;66045;51.622;5.526;2023-01-20T13:52:05;5.40;;;2.30;;
76396;SDS011;66045;51.622;5.526;2023-01-20T13:59:57;3.33;;;2.30;;
76396;SDS011;66045;51.622;5.526;2023-01-20T14:02:24;3.00;;;2.33;;
76396;SDS011;66045;51.622;5.526;2023-01-20T14:04:50;4.97;;;2.20;;
76396;SDS011;66045;51.622;5.526;2023-01-20T14:09:51;3.47;;;2.20;;
76396;SDS011;66045;51.622;5.526;2023-01-20T14:12:17;2.47;;;2.03;;
76396;SDS011;66045;51.622;5.526;2023-01-20T14:14:43;3.72;;;2.13;;
76396;SDS011;66045;51.622;5.526;2023-01-20T14:17:13;2.92;;;2.00;;
76396;SDS011;66045;51.622;5.526;2023-01-20T14:19:45;2.65;;;1.90;;
76396;SDS011;66045;51.622;5.526;2023-01-20T14:22:30;3.20;;;2.00;;
76396;SDS011;66045;51.622;5.526;2023-01-20T14:24:56;2.58;;;1.90;;
76396;SDS011;66045;51.622;5.526;2023-01-20T14:27:25;2.67;;;2.40;;
76396;SDS011;66045;51.622;5.526;2023-01-20T14:29:56;3.05;;;1.90;;
76396;SDS011;66045;51.622;5.526;2023-01-20T14:32:30;3.90;;;1.80;;
76396;SDS011;66045;51.622;5.526;2023-01-20T14:34:58;3.50;;;1.90;;
76396;SDS011;66045;51.622;5.526;2023-01-20T14:37:34;2.20;;;1.98;;
76396;SDS011;66045;51.622;5.526;2023-01-20T14:42:35;3.33;;;1.83;;
76396;SDS011;66045;51.622;5.526;2023-01-20T14:45:15;3.60;;;1.90;;
76396;SDS011;66045;51.622;5.526;2023-01-20T14:50:11;2.50;;;1.95;;
76396;SDS011;66045;51.622;5.526;2023-01-20T14:52:38;3.35;;;2.20;;
76396;SDS011;66045;51.622;5.526;2023-01-20T14:55:03;3.72;;;2.33;;
76396;SDS011;66045;51.622;5.526;2023-01-20T14:57:41;2.28;;;2.08;;
76396;SDS011;66045;51.622;5.526;2023-01-20T15:02:47;4.72;;;2.30;;
76396;SDS011;66045;51.622;5.526;2023-01-20T15:05:33;3.63;;;2.10;;
76396;SDS011;66045;51.622;5.526;2023-01-20T15:16:24;3.33;;;2.10;;
76396;SDS011;66045;51.622;5.526;2023-01-20T15:19:40;3.72;;;1.92;;
76396;SDS011;66045;51.622;5.526;2023-01-20T15:21:41;2.45;;;2.00;;
76396;SDS011;66045;51.622;5.526;2023-01-20T15:24:11;3.35;;;2.10;;
76396;SDS011;66045;51.622;5.526;2023-01-20T15:26:45;2.95;;;2.22;;
76396;SDS011;66045;51.622;5.526;2023-01-20T15:29:19;2.05;;;1.85;;
76396;SDS011;66045;51.622;5.526;2023-01-20T15:31:47;1.90;;;1.60;;
76396;SDS011;66045;51.622;5.526;2023-01-20T15:34:14;2.47;;;2.00;;
76396;SDS011;66045;51.622;5.526;2023-01-20T15:36:39;2.63;;;2.20;;
76396;SDS011;66045;51.622;5.526;2023-01-20T15:39:05;1.95;;;1.83;;
76396;SDS011;66045;51.622;5.526;2023-01-20T15:41:37;2.47;;;1.90;;
76396;SDS011;66045;51.622;5.526;2023-01-20T15:44:02;3.15;;;2.33;;
76396;SDS011;66045;51.622;5.526;2023-01-20T15:46:28;2.65;;;2.10;;
76396;SDS011;66045;51.622;5.526;2023-01-20T15:48:53;2.63;;;2.35;;
76396;SDS011;66045;51.622;5.526;2023-01-20T15:51:19;4.20;;;2.42;;
76396;SDS011;66045;51.622;5.526;2023-01-20T15:53:44;4.20;;;2.30;;
76396;SDS011;66045;51.622;5.526;2023-01-20T15:56:22;4.30;;;2.97;;
76396;SDS011;66045;51.622;5.526;2023-01-20T15:58:50;4.28;;;2.45;;
76396;SDS011;66045;51.622;5.526;2023-01-20T16:01:17;4.00;;;2.83;;
76396;SDS011;66045;51.622;5.526;2023-01-20T16:03:44;4.65;;;2.78;;
76396;SDS011;66045;51.622;5.526;2023-01-20T16:06:11;3.67;;;2.90;;
76396;SDS011;66045;51.622;5.526;2023-01-20T16:08:37;3.30;;;2.72;;
76396;SDS011;66045;51.622;5.526;2023-01-20T16:11:03;4.35;;;2.80;;
76396;SDS011;66045;51.622;5.526;2023-01-20T16:13:29;3.17;;;2.40;;
76396;SDS011;66045;51.622;5.526;2023-01-20T16:15:54;3.38;;;2.50;;
76396;SDS011;66045;51.622;5.526;2023-01-20T16:18:21;4.00;;;2.20;;
76396;SDS011;66045;51.622;5.526;2023-01-20T16:20:47;3.17;;;2.60;;
76396;SDS011;66045;51.622;5.526;2023-01-20T16:23:14;3.17;;;2.47;;
76396;SDS011;66045;51.622;5.526;2023-01-20T16:25:40;3.10;;;2.00;;
76396;SDS011;66045;51.622;5.526;2023-01-20T16:28:12;4.85;;;2.17;;
76396;SDS011;66045;51.622;5.526;2023-01-20T16:30:41;3.90;;;2.30;;
76396;SDS011;66045;51.622;5.526;2023-01-20T16:33:13;3.80;;;2.22;;
76396;SDS011;66045;51.622;5.526;2023-01-20T16:35:47;3.50;;;2.40;;
76396;SDS011;66045;51.622;5.526;2023-01-20T16:38:15;3.28;;;2.15;;
76396;SDS011;66045;51.622;5.526;2023-01-20T16:40:49;3.65;;;2.00;;
76396;SDS011;66045;51.622;5.526;2023-01-20T16:43:16;3.08;;;2.35;;
76396;SDS011;66045;51.622;5.526;2023-01-20T16:45:44;5.70;;;2.40;;
76396;SDS011;66045;51.622;5.526;2023-01-20T16:48:13;4.85;;;2.30;;
76396;SDS011;66045;51.622;5.526;2023-01-20T16:50:39;2.72;;;2.10;;
76396;SDS011;66045;51.622;5.526;2023-01-20T16:53:04;2.63;;;1.67;;
76396;SDS011;66045;51.622;5.526;2023-01-20T16:55:29;2.20;;;2.00;;
76396;SDS011;66045;51.622;5.526;2023-01-20T16:57:55;6.10;;;2.13;;
76396;SDS011;66045;51.622;5.526;2023-01-20T17:00:20;3.13;;;2.20;;
76396;SDS011;66045;51.622;5.526;2023-01-20T17:02:49;3.35;;;2.03;;
76396;SDS011;66045;51.622;5.526;2023-01-20T17:07:46;3.33;;;1.92;;
76396;SDS011;66045;51.622;5.526;2023-01-20T17:10:11;4.28;;;2.20;;
76396;SDS011;66045;51.622;5.526;2023-01-20T17:12:37;2.83;;;2.13;;
76396;SDS011;66045;51.622;5.526;2023-01-20T17:15:02;3.20;;;2.10;;